sensor_id;sensor_type;location;lat;lon;timestamp;pressure;altitude;pressure_sealevel;temperature;humidity
74437;BME280;62868;52.360;30.424;2023-03-29T00:04:13;1010.7;;;0.8;72.7
74437;BME280;62868;52.360;30.424;2023-03-29T00:09:27;1010.8;;;0.8;72.7
74437;BME280;62868;52.360;30.424;2023-03-29T00:13:51;1010.9;;;0.8;72.7
74437;BME280;62868;52.360;30.424;2023-03-29T00:19:27;1010.8;;;0.8;72.7
74437;BME280;62868;52.360;30.424;2023-03-29T00:23:41;1010.9;;;0.8;72.8
74437;BME280;62868;52.360;30.424;2023-03-29T00:29:27;1010.9;;;0.8;72.7
74437;BME280;62868;52.360;30.424;2023-03-29T00:33:53;1010.9;;;0.9;72.7
74437;BME280;62868;52.360;30.424;2023-03-29T00:39:27;1010.9;;;0.9;72.7
74437;BME280;62868;52.360;30.424;2023-03-29T00:44:51;1011;;;0.9;72.7
74437;BME280;62868;52.360;30.424;2023-03-29T00:48:41;1011;;;0.9;72.7
74437;BME280;62868;52.360;30.424;2023-03-29T00:54:25;1011.1;;;0.9;72.7
74437;BME280;62868;52.360;30.424;2023-03-29T00:59:17;1011.1;;;0.9;72.8
74437;BME280;62868;52.360;30.424;2023-03-29T01:03:41;1011.1;;;0.9;72.8
74437;BME280;62868;52.360;30.424;2023-03-29T01:09:25;1011.2;;;0.9;72.9
74437;BME280;62868;52.360;30.424;2023-03-29T01:13:43;1011.3;;;0.9;72.9
74437;BME280;62868;52.360;30.424;2023-03-29T01:19:26;1011.3;;;0.9;73.1
74437;BME280;62868;52.360;30.424;2023-03-29T01:24:29;1011.3;;;0.9;73.2
74437;BME280;62868;52.360;30.424;2023-03-29T01:28:52;1011.3;;;0.9;73.1
74437;BME280;62868;52.360;30.424;2023-03-29T01:34:20;1011.4;;;0.9;73.2
74437;BME280;62868;52.360;30.424;2023-03-29T01:38:51;1011.6;;;0.9;73.2
74437;BME280;62868;52.360;30.424;2023-03-29T01:44:26;1011.7;;;0.9;73.3
74437;BME280;62868;52.360;30.424;2023-03-29T01:49:26;1011.7;;;0.9;73.4
74437;BME280;62868;52.360;30.424;2023-03-29T01:54:08;1011.7;;;0.9;73.6
74437;BME280;62868;52.360;30.424;2023-03-29T01:59:26;1011.7;;;0.9;73.7
74437;BME280;62868;52.360;30.424;2023-03-29T02:03:52;1011.7;;;0.9;73.7
74437;BME280;62868;52.360;30.424;2023-03-29T02:09:25;1011.7;;;1;73.8
74437;BME280;62868;52.360;30.424;2023-03-29T02:14:17;1011.8;;;1;73.8
74437;BME280;62868;52.360;30.424;2023-03-29T02:18:47;1011.9;;;1;73.8
74437;BME280;62868;52.360;30.424;2023-03-29T02:24:25;1012;;;0.9;73.9
74437;BME280;62868;52.360;30.424;2023-03-29T02:28:41;1012;;;0.9;73.9
74437;BME280;62868;52.360;30.424;2023-03-29T02:34:26;1012.1;;;0.9;74
74437;BME280;62868;52.360;30.424;2023-03-29T02:39:17;1012.2;;;0.8;74
74437;BME280;62868;52.360;30.424;2023-03-29T02:44:09;1012.2;;;0.8;74
74437;BME280;62868;52.360;30.424;2023-03-29T02:49:27;1012.2;;;0.8;74
74437;BME280;62868;52.360;30.424;2023-03-29T02:53:42;1012.1;;;0.8;73.9
74437;BME280;62868;52.360;30.424;2023-03-29T02:59:25;1012.2;;;0.8;73.8
74437;BME280;62868;52.360;30.424;2023-03-29T03:04:17;1012.2;;;0.9;73.8
74437;BME280;62868;52.360;30.424;2023-03-29T03:08:47;1012.2;;;0.8;73.7
74437;BME280;62868;52.360;30.424;2023-03-29T03:14:25;1012.2;;;0.8;73.7
74437;BME280;62868;52.360;30.424;2023-03-29T03:18:51;1012.2;;;0.9;73.6
74437;BME280;62868;52.360;30.424;2023-03-29T03:24:25;1012.2;;;0.9;73.6
74437;BME280;62868;52.360;30.424;2023-03-29T03:29:15;1012.3;;;0.9;73.6
74437;BME280;62868;52.360;30.424;2023-03-29T03:34:07;1012.4;;;0.9;73.5
74437;BME280;62868;52.360;30.424;2023-03-29T03:39:25;1012.6;;;0.9;73.5
74437;BME280;62868;52.360;30.424;2023-03-29T03:44:07;1012.6;;;0.9;73.4
74437;BME280;62868;52.360;30.424;2023-03-29T03:49:25;1012.8;;;0.9;73.4
74437;BME280;62868;52.360;30.424;2023-03-29T03:54:17;1012.8;;;0.9;73.3
74437;BME280;62868;52.360;30.424;2023-03-29T03:58:57;1012.9;;;0.9;73.3
74437;BME280;62868;52.360;30.424;2023-03-29T04:04:27;1013;;;1;73.3
74437;BME280;62868;52.360;30.424;2023-03-29T04:08:51;1013.1;;;1;73.2
74437;BME280;62868;52.360;30.424;2023-03-29T04:14:25;1013.3;;;1;73.1
74437;BME280;62868;52.360;30.424;2023-03-29T04:19:17;1013.3;;;1.1;73.1
74437;BME280;62868;52.360;30.424;2023-03-29T04:23:59;1013.4;;;1.1;72.9
74437;BME280;62868;52.360;30.424;2023-03-29T04:29:27;1013.4;;;1.2;72.8
74437;BME280;62868;52.360;30.424;2023-03-29T04:33:51;1013.4;;;1.2;72.7
74437;BME280;62868;52.360;30.424;2023-03-29T04:38:57;1013.4;;;1.4;72.6
74437;BME280;62868;52.360;30.424;2023-03-29T04:44:27;1013.3;;;1.5;72.4
74437;BME280;62868;52.360;30.424;2023-03-29T04:48:47;1013.4;;;1.6;72.2
74437;BME280;62868;52.360;30.424;2023-03-29T04:54:25;1013.5;;;1.7;72
74437;BME280;62868;52.360;30.424;2023-03-29T04:58:41;1013.7;;;1.8;72
74437;BME280;62868;52.360;30.424;2023-03-29T05:04:23;1013.7;;;1.8;72
74437;BME280;62868;52.360;30.424;2023-03-29T05:09:15;1013.7;;;1.8;72
74437;BME280;62868;52.360;30.424;2023-03-29T05:14:23;1013.8;;;1.9;72
74437;BME280;62868;52.360;30.424;2023-03-29T05:19:17;1013.8;;;2;72
74437;BME280;62868;52.360;30.424;2023-03-29T05:24:07;1014;;;2.2;71.9
74437;BME280;62868;52.360;30.424;2023-03-29T05:29:25;1014;;;2.3;71.7
74437;BME280;62868;52.360;30.424;2023-03-29T05:34:15;1014.1;;;2.3;71.7
74437;BME280;62868;52.360;30.424;2023-03-29T05:38:59;1014;;;2.3;71.6
74437;BME280;62868;52.360;30.424;2023-03-29T05:44:19;1014.1;;;2.4;71.6
74437;BME280;62868;52.360;30.424;2023-03-29T05:48:41;1014.1;;;2.4;71.6
74437;BME280;62868;52.360;30.424;2023-03-29T05:54:27;1014.1;;;2.5;71.5
74437;BME280;62868;52.360;30.424;2023-03-29T05:59:05;1014.1;;;2.6;71.3
74437;BME280;62868;52.360;30.424;2023-03-29T06:03:55;1014.1;;;2.6;71.2
74437;BME280;62868;52.360;30.424;2023-03-29T06:09:25;1014.2;;;2.6;71.1
74437;BME280;62868;52.360;30.424;2023-03-29T06:14:07;1014.1;;;2.7;71
74437;BME280;62868;52.360;30.424;2023-03-29T06:19:23;1014.2;;;2.8;70.9
74437;BME280;62868;52.360;30.424;2023-03-29T06:24:15;1014.2;;;3;70.6
74437;BME280;62868;52.360;30.424;2023-03-29T06:28:51;1014.2;;;3.2;70.3
74437;BME280;62868;52.360;30.424;2023-03-29T06:34:23;1014.3;;;3.4;69.8
74437;BME280;62868;52.360;30.424;2023-03-29T06:38:57;1014.3;;;3.6;69.5
74437;BME280;62868;52.360;30.424;2023-03-29T06:44:27;1014.3;;;3.9;69
74437;BME280;62868;52.360;30.424;2023-03-29T06:49:15;1014.4;;;4.2;68.4
74437;BME280;62868;52.360;30.424;2023-03-29T06:53:41;1014.4;;;4.4;68.3
74437;BME280;62868;52.360;30.424;2023-03-29T06:59:25;1014.5;;;4.7;68.4
74437;BME280;62868;52.360;30.424;2023-03-29T07:03:51;1014.6;;;5;69.1
74437;BME280;62868;52.360;30.424;2023-03-29T07:09:28;1014.7;;;5.2;69.6
74437;BME280;62868;52.360;30.424;2023-03-29T07:13:43;1014.8;;;5.5;69.7
74437;BME280;62868;52.360;30.424;2023-03-29T07:18:49;1014.9;;;5.5;69.7
74437;BME280;62868;52.360;30.424;2023-03-29T07:24:25;1015;;;5.6;70
74437;BME280;62868;52.360;30.424;2023-03-29T07:28:51;1015.1;;;5.7;70.1
74437;BME280;62868;52.360;30.424;2023-03-29T07:34:25;1015.1;;;5.9;70.4
74437;BME280;62868;52.360;30.424;2023-03-29T07:39:15;1015.2;;;6;70.5
74437;BME280;62868;52.360;30.424;2023-03-29T07:43:59;1015.3;;;5.8;70.6
74437;BME280;62868;52.360;30.424;2023-03-29T07:49:25;1015.4;;;5.6;70.9
74437;BME280;62868;52.360;30.424;2023-03-29T07:53:57;1015.4;;;5.4;71.2
74437;BME280;62868;52.360;30.424;2023-03-29T07:59:29;1015.4;;;5.3;71.5
74437;BME280;62868;52.360;30.424;2023-03-29T08:04:19;1015.3;;;5.5;72
74437;BME280;62868;52.360;30.424;2023-03-29T08:08:51;1015.3;;;5.6;72.3
74437;BME280;62868;52.360;30.424;2023-03-29T08:14:27;1015.4;;;5.6;72.5
74437;BME280;62868;52.360;30.424;2023-03-29T08:19:29;1015.4;;;5.5;72.7
74437;BME280;62868;52.360;30.424;2023-03-29T08:24:29;1015.4;;;5.7;72.9
74437;BME280;62868;52.360;30.424;2023-03-29T08:29:19;1015.5;;;5.4;73
74437;BME280;62868;52.360;30.424;2023-03-29T08:33:41;1015.7;;;5.2;73
74437;BME280;62868;52.360;30.424;2023-03-29T08:39:25;1015.9;;;5;73.2
74437;BME280;62868;52.360;30.424;2023-03-29T08:44:10;1016.1;;;5;73.4
74437;BME280;62868;52.360;30.424;2023-03-29T08:49:29;1016.3;;;4.7;73.6
74437;BME280;62868;52.360;30.424;2023-03-29T08:54:18;1016.4;;;4.5;74
74437;BME280;62868;52.360;30.424;2023-03-29T08:58:41;1016.4;;;4.5;74.3
74437;BME280;62868;52.360;30.424;2023-03-29T09:04:28;1016.4;;;4.5;74.5
74437;BME280;62868;52.360;30.424;2023-03-29T09:08:43;1016.4;;;4.4;74.4
74437;BME280;62868;52.360;30.424;2023-03-29T09:14:29;1016.5;;;4.3;74.8
74437;BME280;62868;52.360;30.424;2023-03-29T09:19:30;1016.6;;;4.4;74.9
74437;BME280;62868;52.360;30.424;2023-03-29T09:23:53;1016.6;;;4.5;75
74437;BME280;62868;52.360;30.424;2023-03-29T09:29:26;1016.6;;;4.5;75.2
74437;BME280;62868;52.360;30.424;2023-03-29T09:34:07;1016.6;;;4.6;75.2
74437;BME280;62868;52.360;30.424;2023-03-29T09:39:07;1016.5;;;4.7;75.2
74437;BME280;62868;52.360;30.424;2023-03-29T09:44:26;1016.6;;;4.7;75.2
74437;BME280;62868;52.360;30.424;2023-03-29T09:48:55;1016.8;;;5;75.3
74437;BME280;62868;52.360;30.424;2023-03-29T09:54:27;1016.9;;;5.1;75.3
74437;BME280;62868;52.360;30.424;2023-03-29T09:59:09;1017;;;5.1;75.3
74437;BME280;62868;52.360;30.424;2023-03-29T10:04:08;1017.2;;;5;75.2
74437;BME280;62868;52.360;30.424;2023-03-29T10:09:27;1017.3;;;4.8;75.1
74437;BME280;62868;52.360;30.424;2023-03-29T10:14:00;1017.4;;;4.8;75.3
74437;BME280;62868;52.360;30.424;2023-03-29T10:19:28;1017.5;;;4.8;75.6
74437;BME280;62868;52.360;30.424;2023-03-29T10:23:41;1017.5;;;4.9;75.6
74437;BME280;62868;52.360;30.424;2023-03-29T10:29:25;1017.6;;;4.8;75.6
74437;BME280;62868;52.360;30.424;2023-03-29T10:34:29;1017.7;;;4.7;75.6
74437;BME280;62868;52.360;30.424;2023-03-29T10:39:00;1017.7;;;4.7;75.6
74437;BME280;62868;52.360;30.424;2023-03-29T11:11:35;1018.2;;;4.6;75.9
74437;BME280;62868;52.360;30.424;2023-03-29T11:16:40;1018.3;;;4.6;76
74437;BME280;62868;52.360;30.424;2023-03-29T11:21:19;1018.3;;;4.6;76
74437;BME280;62868;52.360;30.424;2023-03-29T11:26:01;1018.4;;;4.4;75.9
74437;BME280;62868;52.360;30.424;2023-03-29T11:31:31;1018.5;;;4.3;75.9
74437;BME280;62868;52.360;30.424;2023-03-29T11:36:22;1018.5;;;4.2;76
74437;BME280;62868;52.360;30.424;2023-03-29T11:41:36;1018.6;;;4.2;76.1
74437;BME280;62868;52.360;30.424;2023-03-29T11:46:17;1018.7;;;4.2;76.2
74437;BME280;62868;52.360;30.424;2023-03-29T11:51:02;1018.8;;;4.4;76.4
74437;BME280;62868;52.360;30.424;2023-03-29T11:56:29;1018.9;;;4.5;76.4
74437;BME280;62868;52.360;30.424;2023-03-29T12:01:09;1019;;;4.4;76.4
74437;BME280;62868;52.360;30.424;2023-03-29T12:06:39;1019.1;;;4.4;76.4
74437;BME280;62868;52.360;30.424;2023-03-29T12:11:18;1019.2;;;4.4;76.4
74437;BME280;62868;52.360;30.424;2023-03-29T12:15:51;1019.3;;;4.3;76.3
74437;BME280;62868;52.360;30.424;2023-03-29T12:21:27;1019.3;;;4.3;76.4
74437;BME280;62868;52.360;30.424;2023-03-29T12:26:02;1019.4;;;4.3;76.5
74437;BME280;62868;52.360;30.424;2023-03-29T12:31:36;1019.5;;;4.4;76.6
74437;BME280;62868;52.360;30.424;2023-03-29T12:36:20;1019.5;;;4.3;76.6
74437;BME280;62868;52.360;30.424;2023-03-29T12:41:01;1019.4;;;4.2;76.5
74437;BME280;62868;52.360;30.424;2023-03-29T12:46:29;1019.5;;;4.1;76.5
74437;BME280;62868;52.360;30.424;2023-03-29T12:50:52;1019.6;;;4.1;76.6
74437;BME280;62868;52.360;30.424;2023-03-29T12:56:39;1019.6;;;4.2;76.7
74437;BME280;62868;52.360;30.424;2023-03-29T13:01:07;1019.7;;;4.3;76.7
74437;BME280;62868;52.360;30.424;2023-03-29T13:05:57;1019.7;;;4.4;76.6
74437;BME280;62868;52.360;30.424;2023-03-29T13:11:30;1019.9;;;4.5;76.5
74437;BME280;62868;52.360;30.424;2023-03-29T13:15:51;1019.9;;;4.6;76.4
74437;BME280;62868;52.360;30.424;2023-03-29T13:21:39;1020;;;4.7;76.3
74437;BME280;62868;52.360;30.424;2023-03-29T13:25:55;1020;;;4.8;76.3
74437;BME280;62868;52.360;30.424;2023-03-29T13:30:54;1020.1;;;5;76.1
74437;BME280;62868;52.360;30.424;2023-03-29T13:36:40;1020.2;;;5;75.9
74437;BME280;62868;52.360;30.424;2023-03-29T13:40:58;1020.3;;;5.1;75.7
74437;BME280;62868;52.360;30.424;2023-03-29T13:46:36;1020.4;;;5.2;75.5
74437;BME280;62868;52.360;30.424;2023-03-29T13:51:18;1020.5;;;5.3;75.4
74437;BME280;62868;52.360;30.424;2023-03-29T13:56:01;1020.6;;;5.3;75.2
74437;BME280;62868;52.360;30.424;2023-03-29T14:01:28;1020.6;;;5.5;75.1
74437;BME280;62868;52.360;30.424;2023-03-29T14:05:52;1020.7;;;5.4;75
74437;BME280;62868;52.360;30.424;2023-03-29T14:11:35;1020.8;;;5.5;74.9
74437;BME280;62868;52.360;30.424;2023-03-29T14:16:07;1020.8;;;5.4;74.7
74437;BME280;62868;52.360;30.424;2023-03-29T14:20:51;1020.9;;;5.2;74.5
74437;BME280;62868;52.360;30.424;2023-03-29T14:26:28;1021;;;5;74.5
74437;BME280;62868;52.360;30.424;2023-03-29T14:31:01;1021;;;5;74.3
74437;BME280;62868;52.360;30.424;2023-03-29T14:36:37;1021.1;;;4.8;74.3
74437;BME280;62868;52.360;30.424;2023-03-29T14:41:17;1021.2;;;4.5;74.3
74437;BME280;62868;52.360;30.424;2023-03-29T14:45:51;1021.2;;;4.5;74.3
74437;BME280;62868;52.360;30.424;2023-03-29T14:51:27;1021.3;;;4.4;74.2
74437;BME280;62868;52.360;30.424;2023-03-29T14:56:01;1021.4;;;4.4;74.2
74437;BME280;62868;52.360;30.424;2023-03-29T15:01:13;1021.4;;;4.1;74.3
74437;BME280;62868;52.360;30.424;2023-03-29T15:06:01;1021.5;;;4;74.3
74437;BME280;62868;52.360;30.424;2023-03-29T15:10:53;1021.6;;;4;74.4
74437;BME280;62868;52.360;30.424;2023-03-29T15:16:37;1021.7;;;3.8;74.3
74437;BME280;62868;52.360;30.424;2023-03-29T15:20:59;1021.8;;;3.7;74.3
74437;BME280;62868;52.360;30.424;2023-03-29T15:26:07;1022;;;3.6;74.3
74437;BME280;62868;52.360;30.424;2023-03-29T15:31:31;1021.9;;;3.4;74.2
74437;BME280;62868;52.360;30.424;2023-03-29T15:36:19;1022.1;;;3.4;74.2
74437;BME280;62868;52.360;30.424;2023-03-29T15:41:35;1022.2;;;3.3;74.2
74437;BME280;62868;52.360;30.424;2023-03-29T15:46:01;1022.3;;;3.2;74.2
74437;BME280;62868;52.360;30.424;2023-03-29T15:51:11;1022.4;;;3.1;74.3
74437;BME280;62868;52.360;30.424;2023-03-29T15:56:27;1022.6;;;3.1;74.3
74437;BME280;62868;52.360;30.424;2023-03-29T16:01:20;1022.7;;;3;74.4
74437;BME280;62868;52.360;30.424;2023-03-29T16:06:35;1022.8;;;2.9;74.3
74437;BME280;62868;52.360;30.424;2023-03-29T16:11:01;1022.9;;;2.8;74.2
74437;BME280;62868;52.360;30.424;2023-03-29T16:15:59;1023;;;2.7;74.2
74437;BME280;62868;52.360;30.424;2023-03-29T16:21:17;1023.1;;;2.7;74.2
74437;BME280;62868;52.360;30.424;2023-03-29T16:26:17;1023.2;;;2.7;74.3
74437;BME280;62868;52.360;30.424;2023-03-29T16:31:35;1023.3;;;2.7;74.3
74437;BME280;62868;52.360;30.424;2023-03-29T16:35:51;1023.4;;;2.6;74.3
74437;BME280;62868;52.360;30.424;2023-03-29T16:41:17;1023.6;;;2.5;74.2
74437;BME280;62868;52.360;30.424;2023-03-29T16:45:51;1023.7;;;2.5;74.2
74437;BME280;62868;52.360;30.424;2023-03-29T16:51:11;1023.8;;;2.5;74.2
74437;BME280;62868;52.360;30.424;2023-03-29T16:56:35;1023.9;;;2.6;74.1
74437;BME280;62868;52.360;30.424;2023-03-29T17:00:51;1023.9;;;2.6;74.1
74437;BME280;62868;52.360;30.424;2023-03-29T17:06:19;1023.9;;;2.5;74
74437;BME280;62868;52.360;30.424;2023-03-29T17:11:17;1024;;;2.5;73.9
74437;BME280;62868;52.360;30.424;2023-03-29T17:16:35;1024.2;;;2.4;73.8
74437;BME280;62868;52.360;30.424;2023-03-29T17:21:37;1024.1;;;2.4;73.7
74437;BME280;62868;52.360;30.424;2023-03-29T17:25:52;1024.2;;;2.3;73.6
74437;BME280;62868;52.360;30.424;2023-03-29T17:31:37;1024.2;;;2.3;73.6
74437;BME280;62868;52.360;30.424;2023-03-29T17:36:25;1024.3;;;2.3;73.5
74437;BME280;62868;52.360;30.424;2023-03-29T17:41:17;1024.4;;;2.3;73.4
74437;BME280;62868;52.360;30.424;2023-03-29T17:46:35;1024.4;;;2.3;73.4
74437;BME280;62868;52.360;30.424;2023-03-29T17:50:53;1024.5;;;2.3;73.3
74437;BME280;62868;52.360;30.424;2023-03-29T17:56:17;1024.5;;;2.3;73.3
74437;BME280;62868;52.360;30.424;2023-03-29T18:00:51;1024.5;;;2.3;73.2
74437;BME280;62868;52.360;30.424;2023-03-29T18:06:17;1024.5;;;2.3;73.2
74437;BME280;62868;52.360;30.424;2023-03-29T18:11:37;1024.6;;;2.2;73.2
74437;BME280;62868;52.360;30.424;2023-03-29T18:16:01;1024.7;;;2.2;73.1
74437;BME280;62868;52.360;30.424;2023-03-29T18:21:19;1024.7;;;2.2;73
74437;BME280;62868;52.360;30.424;2023-03-29T18:25:56;1024.8;;;2.1;73
74437;BME280;62868;52.360;30.424;2023-03-29T18:31:18;1024.8;;;2.1;72.9
74437;BME280;62868;52.360;30.424;2023-03-29T18:36:38;1024.8;;;2.1;72.8
74437;BME280;62868;52.360;30.424;2023-03-29T18:40:51;1024.8;;;2;72.8
74437;BME280;62868;52.360;30.424;2023-03-29T18:46:17;1024.9;;;2;72.7
74437;BME280;62868;52.360;30.424;2023-03-29T18:51:15;1024.9;;;2;72.7
74437;BME280;62868;52.360;30.424;2023-03-29T18:56:17;1024.9;;;1.9;72.6
74437;BME280;62868;52.360;30.424;2023-03-29T19:01:09;1024.9;;;1.8;72.6
74437;BME280;62868;52.360;30.424;2023-03-29T19:05:51;1025;;;1.7;72.5
74437;BME280;62868;52.360;30.424;2023-03-29T19:11:19;1025;;;1.6;72.5
74437;BME280;62868;52.360;30.424;2023-03-29T19:21:17;1025.2;;;1.4;72.5
74437;BME280;62868;52.360;30.424;2023-03-29T19:26:37;1025.2;;;1.4;72.6
74437;BME280;62868;52.360;30.424;2023-03-29T19:36:19;1025.3;;;1.4;72.5
74437;BME280;62868;52.360;30.424;2023-03-29T19:41:17;1025.3;;;1.4;72.5
74437;BME280;62868;52.360;30.424;2023-03-29T19:46:17;1025.4;;;1.5;72.3
74437;BME280;62868;52.360;30.424;2023-03-29T19:51:35;1025.4;;;1.5;72.2
74437;BME280;62868;52.360;30.424;2023-03-29T19:55:51;1025.4;;;1.5;72.2
74437;BME280;62868;52.360;30.424;2023-03-29T20:01:17;1025.4;;;1.5;72.1
74437;BME280;62868;52.360;30.424;2023-03-29T20:06:05;1025.5;;;1.5;72.1
74437;BME280;62868;52.360;30.424;2023-03-29T20:11:17;1025.5;;;1.4;72
74437;BME280;62868;52.360;30.424;2023-03-29T20:16:35;1025.6;;;1.4;72
74437;BME280;62868;52.360;30.424;2023-03-29T20:20:51;1025.6;;;1.4;72
74437;BME280;62868;52.360;30.424;2023-03-29T20:26:17;1025.6;;;1.4;71.9
74437;BME280;62868;52.360;30.424;2023-03-29T20:30:51;1025.7;;;1.3;71.9
74437;BME280;62868;52.360;30.424;2023-03-29T20:36:09;1025.7;;;1.2;71.9
74437;BME280;62868;52.360;30.424;2023-03-29T20:41:35;1025.8;;;1;71.9
74437;BME280;62868;52.360;30.424;2023-03-29T20:46:08;1025.8;;;0.9;71.8
74437;BME280;62868;52.360;30.424;2023-03-29T20:51:17;1025.8;;;0.7;71.9
74437;BME280;62868;52.360;30.424;2023-03-29T20:55:51;1025.8;;;0.6;71.9
74437;BME280;62868;52.360;30.424;2023-03-29T21:01:19;1025.8;;;0.6;71.9
74437;BME280;62868;52.360;30.424;2023-03-29T21:06:35;1025.9;;;0.5;71.9
74437;BME280;62868;52.360;30.424;2023-03-29T21:11:07;1025.9;;;0.4;71.9
74437;BME280;62868;52.360;30.424;2023-03-29T21:16:17;1025.9;;;0.4;71.8
74437;BME280;62868;52.360;30.424;2023-03-29T21:21:17;1025.9;;;0.4;71.7
74437;BME280;62868;52.360;30.424;2023-03-29T21:26:17;1025.9;;;0.3;71.7
74437;BME280;62868;52.360;30.424;2023-03-29T21:31:27;1026;;;0.2;71.7
74437;BME280;62868;52.360;30.424;2023-03-29T21:36:01;1026;;;0.2;71.6
74437;BME280;62868;52.360;30.424;2023-03-29T21:41:15;1026.1;;;0.2;71.6
74437;BME280;62868;52.360;30.424;2023-03-29T21:46:17;1026.1;;;0.1;71.6
74437;BME280;62868;52.360;30.424;2023-03-29T21:51:15;1026.1;;;0.1;71.6
74437;BME280;62868;52.360;30.424;2023-03-29T21:56:33;1026.2;;;0;71.7
74437;BME280;62868;52.360;30.424;2023-03-29T22:00:51;1026.2;;;0;71.6
74437;BME280;62868;52.360;30.424;2023-03-29T22:06:15;1026.2;;;-0.1;71.6
74437;BME280;62868;52.360;30.424;2023-03-29T22:11:03;1026.2;;;-0.1;71.6
74437;BME280;62868;52.360;30.424;2023-03-29T22:16:15;1026.2;;;-0.2;71.6
74437;BME280;62868;52.360;30.424;2023-03-29T22:21:33;1026.2;;;-0.2;71.6
74437;BME280;62868;52.360;30.424;2023-03-29T22:26:08;1026.2;;;-0.3;71.6
74437;BME280;62868;52.360;30.424;2023-03-29T22:31:16;1026.3;;;-0.4;71.5
74437;BME280;62868;52.360;30.424;2023-03-29T22:36:18;1026.3;;;-0.4;71.5
74437;BME280;62868;52.360;30.424;2023-03-29T22:41:17;1026.4;;;-0.4;71.4
74437;BME280;62868;52.360;30.424;2023-03-29T22:46:33;1026.4;;;-0.5;71.4
74437;BME280;62868;52.360;30.424;2023-03-29T22:51:01;1026.4;;;-0.5;71.4
74437;BME280;62868;52.360;30.424;2023-03-29T22:56:16;1026.4;;;-0.6;71.4
74437;BME280;62868;52.360;30.424;2023-03-29T23:01:07;1026.4;;;-0.6;71.3
74437;BME280;62868;52.360;30.424;2023-03-29T23:06:01;1026.4;;;-0.6;71.2
74437;BME280;62868;52.360;30.424;2023-03-29T23:11:33;1026.4;;;-0.6;71.2
74437;BME280;62868;52.360;30.424;2023-03-29T23:16:09;1026.4;;;-0.7;71.2
74437;BME280;62868;52.360;30.424;2023-03-29T23:20:52;1026.4;;;-0.7;71.1
74437;BME280;62868;52.360;30.424;2023-03-29T23:26:23;1026.5;;;-0.7;71.1
74437;BME280;62868;52.360;30.424;2023-03-29T23:31:33;1026.5;;;-0.7;71.1
74437;BME280;62868;52.360;30.424;2023-03-29T23:36:25;1026.5;;;-0.8;71
74437;BME280;62868;52.360;30.424;2023-03-29T23:40:52;1026.6;;;-0.8;70.9
74437;BME280;62868;52.360;30.424;2023-03-29T23:46:10;1026.6;;;-0.8;70.8
74437;BME280;62868;52.360;30.424;2023-03-29T23:51:25;1026.6;;;-0.9;70.8
74437;BME280;62868;52.360;30.424;2023-03-29T23:56:35;1026.5;;;-0.9;70.7
